sensor_id;sensor_type;location;lat;lon;timestamp;pressure;altitude;pressure_sealevel;temperature;humidity
54439;BME280;40347;53.848;27.498;2022-10-04T00:03:45;995.2;;;6.1;82.9
54439;BME280;40347;53.848;27.498;2022-10-04T00:08:46;995.2;;;6.1;82.9
54439;BME280;40347;53.848;27.498;2022-10-04T00:13:31;995.1;;;6.2;82.8
54439;BME280;40347;53.848;27.498;2022-10-04T00:18:59;995.2;;;6.3;82.8
54439;BME280;40347;53.848;27.498;2022-10-04T00:23:40;995.2;;;6.2;82.7
54439;BME280;40347;53.848;27.498;2022-10-04T00:28:48;995.2;;;6.3;82.7
54439;BME280;40347;53.848;27.498;2022-10-04T00:33:35;995.3;;;6.4;82.7
54439;BME280;40347;53.848;27.498;2022-10-04T00:40:02;995.3;;;6.4;82.6
54439;BME280;40347;53.848;27.498;2022-10-04T00:43:51;995.3;;;6.4;82.5
54439;BME280;40347;53.848;27.498;2022-10-04T00:48:33;995.3;;;6.3;82.4
54439;BME280;40347;53.848;27.498;2022-10-04T00:53:49;995.3;;;6.3;82.5
54439;BME280;40347;53.848;27.498;2022-10-04T00:58:46;995.3;;;6.3;82.6
54439;BME280;40347;53.848;27.498;2022-10-04T01:03:32;995.3;;;6.4;82.6
54439;BME280;40347;53.848;27.498;2022-10-04T01:08:33;995.4;;;6.3;82.5
54439;BME280;40347;53.848;27.498;2022-10-04T01:13:36;995.4;;;6.3;82.5
54439;BME280;40347;53.848;27.498;2022-10-04T01:18:39;995.4;;;6.2;82.4
54439;BME280;40347;53.848;27.498;2022-10-04T01:23:46;995.4;;;6;82.5
54439;BME280;40347;53.848;27.498;2022-10-04T01:28:56;995.4;;;6.1;82.8
54439;BME280;40347;53.848;27.498;2022-10-04T01:33:30;995.5;;;6.2;82.8
54439;BME280;40347;53.848;27.498;2022-10-04T01:38:40;995.5;;;6.1;82.6
54439;BME280;40347;53.848;27.498;2022-10-04T01:43:41;995.6;;;6;82.3
54439;BME280;40347;53.848;27.498;2022-10-04T01:48:54;995.6;;;6.1;82.3
54439;BME280;40347;53.848;27.498;2022-10-04T01:53:42;995.7;;;6;82.4
54439;BME280;40347;53.848;27.498;2022-10-04T01:58:43;995.7;;;5.9;82.2
54439;BME280;40347;53.848;27.498;2022-10-04T02:04:02;995.8;;;5.9;82.3
54439;BME280;40347;53.848;27.498;2022-10-04T02:08:32;995.8;;;5.8;82.3
54439;BME280;40347;53.848;27.498;2022-10-04T02:13:33;995.9;;;5.8;82.4
54439;BME280;40347;53.848;27.498;2022-10-04T02:18:31;995.9;;;5.8;82.5
54439;BME280;40347;53.848;27.498;2022-10-04T02:23:37;996;;;5.8;82.5
54439;BME280;40347;53.848;27.498;2022-10-04T02:28:47;996;;;5.8;82.5
54439;BME280;40347;53.848;27.498;2022-10-04T02:33:49;996;;;5.8;82.6
54439;BME280;40347;53.848;27.498;2022-10-04T02:39:13;996;;;5.9;82.7
54439;BME280;40347;53.848;27.498;2022-10-04T02:44:02;996;;;6;82.8
54439;BME280;40347;53.848;27.498;2022-10-04T02:48:49;996.1;;;6.1;82.8
54439;BME280;40347;53.848;27.498;2022-10-04T02:54:11;996.1;;;6.1;82.7
54439;BME280;40347;53.848;27.498;2022-10-04T02:58:40;996.1;;;6.1;82.6
54439;BME280;40347;53.848;27.498;2022-10-04T03:03:38;996;;;6;82.6
54439;BME280;40347;53.848;27.498;2022-10-04T03:08:32;996.1;;;6.1;82.7
54439;BME280;40347;53.848;27.498;2022-10-04T03:13:37;996.1;;;6.1;82.8
54439;BME280;40347;53.848;27.498;2022-10-04T03:18:30;996.1;;;6.2;82.8
54439;BME280;40347;53.848;27.498;2022-10-04T03:23:37;996.2;;;6.2;82.7
54439;BME280;40347;53.848;27.498;2022-10-04T03:28:55;996.2;;;6.1;82.6
54439;BME280;40347;53.848;27.498;2022-10-04T03:33:31;996.2;;;6.2;82.5
54439;BME280;40347;53.848;27.498;2022-10-04T03:38:43;996.3;;;6.3;82.5
54439;BME280;40347;53.848;27.498;2022-10-04T03:43:43;996.3;;;6.3;82.5
54439;BME280;40347;53.848;27.498;2022-10-04T03:48:32;996.3;;;6.3;82.3
54439;BME280;40347;53.848;27.498;2022-10-04T03:53:59;996.4;;;6.2;82.3
54439;BME280;40347;53.848;27.498;2022-10-04T03:58:47;996.3;;;6.2;82.5
54439;BME280;40347;53.848;27.498;2022-10-04T04:03:31;996.4;;;6.3;82.6
54439;BME280;40347;53.848;27.498;2022-10-04T04:08:43;996.5;;;6.5;82.6
54439;BME280;40347;53.848;27.498;2022-10-04T04:13:55;996.5;;;6.5;82.4
54439;BME280;40347;53.848;27.498;2022-10-04T04:18:32;996.5;;;6.4;82.1
54439;BME280;40347;53.848;27.498;2022-10-04T04:23:34;996.6;;;6.4;82.1
54439;BME280;40347;53.848;27.498;2022-10-04T04:28:32;996.7;;;6.5;82.2
54439;BME280;40347;53.848;27.498;2022-10-04T04:33:55;996.7;;;6.7;82
54439;BME280;40347;53.848;27.498;2022-10-04T04:38:44;996.8;;;6.7;81.6
54439;BME280;40347;53.848;27.498;2022-10-04T04:43:31;996.8;;;6.7;81.3
54439;BME280;40347;53.848;27.498;2022-10-04T04:48:37;996.9;;;6.7;81.3
54439;BME280;40347;53.848;27.498;2022-10-04T04:53:37;997;;;6.8;81.4
54439;BME280;40347;53.848;27.498;2022-10-04T04:58:42;997;;;6.8;81.3
54439;BME280;40347;53.848;27.498;2022-10-04T05:04:19;997.1;;;6.8;81
54439;BME280;40347;53.848;27.498;2022-10-04T05:08:31;997.2;;;6.9;80.9
54439;BME280;40347;53.848;27.498;2022-10-04T05:13:32;997.3;;;6.8;80.1
54439;BME280;40347;53.848;27.498;2022-10-04T05:18:31;997.3;;;6.8;80.1
54439;BME280;40347;53.848;27.498;2022-10-04T05:23:53;997.4;;;6.9;80.3
54439;BME280;40347;53.848;27.498;2022-10-04T05:28:41;997.4;;;6.9;80.4
54439;BME280;40347;53.848;27.498;2022-10-04T05:33:56;997.5;;;7.1;80.5
54439;BME280;40347;53.848;27.498;2022-10-04T05:38:46;997.5;;;7.3;80.3
54439;BME280;40347;53.848;27.498;2022-10-04T05:43:37;997.6;;;7.3;79.7
54439;BME280;40347;53.848;27.498;2022-10-04T05:48:43;997.7;;;7.3;79.6
54439;BME280;40347;53.848;27.498;2022-10-04T05:53:31;997.7;;;7.5;79.9
54439;BME280;40347;53.848;27.498;2022-10-04T05:58:40;997.8;;;7.7;79.6
54439;BME280;40347;53.848;27.498;2022-10-04T06:08:36;997.9;;;8.2;78.8
54439;BME280;40347;53.848;27.498;2022-10-04T06:13:53;997.9;;;8.4;78.3
54439;BME280;40347;53.848;27.498;2022-10-04T06:18:41;998;;;8.5;77.8
54439;BME280;40347;53.848;27.498;2022-10-04T06:23:31;998.1;;;8.5;76.9
54439;BME280;40347;53.848;27.498;2022-10-04T06:28:39;998.2;;;8.4;76.8
54439;BME280;40347;53.848;27.498;2022-10-04T06:33:51;998.3;;;8.4;76.6
54439;BME280;40347;53.848;27.498;2022-10-04T06:38:50;998.3;;;8.4;76.7
54439;BME280;40347;53.848;27.498;2022-10-04T06:48:49;998.5;;;8.6;76.6
54439;BME280;40347;53.848;27.498;2022-10-04T06:53:51;998.5;;;8.7;76.5
54439;BME280;40347;53.848;27.498;2022-10-04T06:59:38;998.5;;;8.9;75.8
54439;BME280;40347;53.848;27.498;2022-10-04T07:03:40;998.6;;;8.8;74.1
54439;BME280;40347;53.848;27.498;2022-10-04T07:08:47;998.7;;;8.8;74.6
54439;BME280;40347;53.848;27.498;2022-10-04T07:13:44;998.7;;;8.8;75
54439;BME280;40347;53.848;27.498;2022-10-04T07:18:32;998.7;;;8.9;75.2
54439;BME280;40347;53.848;27.498;2022-10-04T07:23:48;998.8;;;9;74.7
54439;BME280;40347;53.848;27.498;2022-10-04T07:28:32;998.9;;;9;74.6
54439;BME280;40347;53.848;27.498;2022-10-04T07:33:43;999;;;9.2;74.4
54439;BME280;40347;53.848;27.498;2022-10-04T07:38:31;999.1;;;9.2;73.8
54439;BME280;40347;53.848;27.498;2022-10-04T07:43:32;999.3;;;9.1;73.1
54439;BME280;40347;53.848;27.498;2022-10-04T07:48:31;999.4;;;8.9;73.3
54439;BME280;40347;53.848;27.498;2022-10-04T07:54:38;999.5;;;8.7;72.6
54439;BME280;40347;53.848;27.498;2022-10-04T07:58:51;999.5;;;8.4;73.4
54439;BME280;40347;53.848;27.498;2022-10-04T08:03:54;999.6;;;8.4;74.9
54439;BME280;40347;53.848;27.498;2022-10-04T08:09:02;999.6;;;8.6;74.9
54439;BME280;40347;53.848;27.498;2022-10-04T08:13:51;999.6;;;8.7;74.6
54439;BME280;40347;53.848;27.498;2022-10-04T08:18:47;999.7;;;8.9;74.6
54439;BME280;40347;53.848;27.498;2022-10-04T08:24:14;999.7;;;9.1;73.4
54439;BME280;40347;53.848;27.498;2022-10-04T08:28:57;999.8;;;9;73.1
54439;BME280;40347;53.848;27.498;2022-10-04T08:33:43;999.9;;;9;73.3
54439;BME280;40347;53.848;27.498;2022-10-04T08:38:33;1000;;;9.1;73.7
54439;BME280;40347;53.848;27.498;2022-10-04T08:44:25;1000;;;9.3;72.9
54439;BME280;40347;53.848;27.498;2022-10-04T08:53:44;1000.1;;;9.2;72.1
54439;BME280;40347;53.848;27.498;2022-10-04T08:59:21;1000.2;;;9.2;72.5
54439;BME280;40347;53.848;27.498;2022-10-04T09:03:41;1000.2;;;9.4;73.1
54439;BME280;40347;53.848;27.498;2022-10-04T09:09:21;1000.3;;;9.8;71.6
54439;BME280;40347;53.848;27.498;2022-10-04T09:19:10;1000.5;;;9.6;70.5
54439;BME280;40347;53.848;27.498;2022-10-04T09:24:32;1000.6;;;9.5;70.4
54439;BME280;40347;53.848;27.498;2022-10-04T09:29:40;1000.7;;;9.5;71
54439;BME280;40347;53.848;27.498;2022-10-04T09:33:44;1000.8;;;9.5;70.3
54439;BME280;40347;53.848;27.498;2022-10-04T09:38:46;1000.8;;;9.5;70
54439;BME280;40347;53.848;27.498;2022-10-04T09:43:54;1000.9;;;9.5;70.7
54439;BME280;40347;53.848;27.498;2022-10-04T09:48:57;1000.9;;;9.6;70.5
54439;BME280;40347;53.848;27.498;2022-10-04T09:54:06;1001;;;9.8;70.7
54439;BME280;40347;53.848;27.498;2022-10-04T09:58:55;1001.1;;;9.9;69.4
54439;BME280;40347;53.848;27.498;2022-10-04T10:05:55;1001.1;;;9.6;69.1
54439;BME280;40347;53.848;27.498;2022-10-04T10:08:54;1001.3;;;9.7;70.4
54439;BME280;40347;53.848;27.498;2022-10-04T10:13:37;1001.3;;;10;70.5
54439;BME280;40347;53.848;27.498;2022-10-04T10:18:37;1001.4;;;10.2;69.4
54439;BME280;40347;53.848;27.498;2022-10-04T10:29:00;1001.5;;;10.5;66.2
54439;BME280;40347;53.848;27.498;2022-10-04T10:44:06;1001.7;;;9.8;69.6
54439;BME280;40347;53.848;27.498;2022-10-04T10:48:47;1001.8;;;9.7;70.4
54439;BME280;40347;53.848;27.498;2022-10-04T10:58:52;1001.9;;;9.8;70.3
54439;BME280;40347;53.848;27.498;2022-10-04T11:04:07;1002;;;10;69
54439;BME280;40347;53.848;27.498;2022-10-04T11:14:01;1002;;;11.2;67.9
54439;BME280;40347;53.848;27.498;2022-10-04T11:18:49;1002.1;;;11.3;65.1
54439;BME280;40347;53.848;27.498;2022-10-04T11:23:51;1002.2;;;10.8;65.4
54439;BME280;40347;53.848;27.498;2022-10-04T11:38:56;1002.6;;;10.6;68.1
54439;BME280;40347;53.848;27.498;2022-10-04T11:43:46;1002.6;;;10.5;68.9
54439;BME280;40347;53.848;27.498;2022-10-04T11:49:00;1002.7;;;10.6;69.4
54439;BME280;40347;53.848;27.498;2022-10-04T11:59:06;1002.8;;;10.7;68.7
54439;BME280;40347;53.848;27.498;2022-10-04T12:04:10;1002.9;;;10.7;69.7
54439;BME280;40347;53.848;27.498;2022-10-04T12:09:45;1003;;;10.8;69.4
54439;BME280;40347;53.848;27.498;2022-10-04T12:13:50;1003;;;10.6;69.1
54439;BME280;40347;53.848;27.498;2022-10-04T12:19:13;1003.1;;;10.7;69.8
54439;BME280;40347;53.848;27.498;2022-10-04T12:28:35;1003.3;;;10.2;69.9
54439;BME280;40347;53.848;27.498;2022-10-04T12:33:33;1003.4;;;10.3;70.5
54439;BME280;40347;53.848;27.498;2022-10-04T12:38:58;1003.4;;;10.3;70.5
54439;BME280;40347;53.848;27.498;2022-10-04T12:43:43;1003.5;;;10.3;71.2
54439;BME280;40347;53.848;27.498;2022-10-04T12:53:39;1003.6;;;10;72
54439;BME280;40347;53.848;27.498;2022-10-04T12:58:45;1003.7;;;9.9;72.5
54439;BME280;40347;53.848;27.498;2022-10-04T13:04:46;1003.8;;;9.8;73.3
54439;BME280;40347;53.848;27.498;2022-10-04T13:08:41;1003.8;;;9.8;73.6
54439;BME280;40347;53.848;27.498;2022-10-04T13:13:54;1003.9;;;9.7;73.6
54439;BME280;40347;53.848;27.498;2022-10-04T13:18:56;1004;;;9.6;74.5
54439;BME280;40347;53.848;27.498;2022-10-04T13:23:52;1004.1;;;9.5;75.1
54439;BME280;40347;53.848;27.498;2022-10-04T13:28:34;1004.1;;;9.5;75.2
54439;BME280;40347;53.848;27.498;2022-10-04T13:33:42;1004.2;;;9.3;76
54439;BME280;40347;53.848;27.498;2022-10-04T13:38:59;1004.3;;;9.1;76.5
54439;BME280;40347;53.848;27.498;2022-10-04T13:48:59;1004.4;;;9.3;77.2
54439;BME280;40347;53.848;27.498;2022-10-04T13:53:42;1004.4;;;9.3;76.7
54439;BME280;40347;53.848;27.498;2022-10-04T14:03:32;1004.6;;;9.1;76.7
54439;BME280;40347;53.848;27.498;2022-10-04T14:08:35;1004.7;;;8.9;76.8
54439;BME280;40347;53.848;27.498;2022-10-04T14:34:40;1005.1;;;8.7;78
54439;BME280;40347;53.848;27.498;2022-10-04T14:39:40;1005.3;;;8.6;78.1
54439;BME280;40347;53.848;27.498;2022-10-04T14:44:49;1005.3;;;8.6;78.3
54439;BME280;40347;53.848;27.498;2022-10-04T14:48:42;1005.4;;;8.5;78.5
54439;BME280;40347;53.848;27.498;2022-10-04T14:53:36;1005.5;;;8.7;78.2
54439;BME280;40347;53.848;27.498;2022-10-04T14:58:52;1005.6;;;8.8;77.8
54439;BME280;40347;53.848;27.498;2022-10-04T15:04:07;1005.6;;;8.9;77.6
54439;BME280;40347;53.848;27.498;2022-10-04T15:09:23;1005.7;;;8.8;77.6
54439;BME280;40347;53.848;27.498;2022-10-04T15:13:52;1005.8;;;8.8;77.4
54439;BME280;40347;53.848;27.498;2022-10-04T15:18:46;1005.9;;;8.8;77.8
54439;BME280;40347;53.848;27.498;2022-10-04T15:23:39;1006;;;8.8;78
54439;BME280;40347;53.848;27.498;2022-10-04T15:28:56;1006.1;;;8.8;78.1
54439;BME280;40347;53.848;27.498;2022-10-04T15:33:32;1006.2;;;8.9;78.1
54439;BME280;40347;53.848;27.498;2022-10-04T15:38:34;1006.3;;;8.8;78.3
54439;BME280;40347;53.848;27.498;2022-10-04T15:43:40;1006.5;;;8.7;78.8
54439;BME280;40347;53.848;27.498;2022-10-04T15:49:22;1006.6;;;8.6;79.5
54439;BME280;40347;53.848;27.498;2022-10-04T15:58:54;1006.7;;;8.6;80.3
54439;BME280;40347;53.848;27.498;2022-10-04T16:05:05;1006.7;;;8.6;80.3
54439;BME280;40347;53.848;27.498;2022-10-04T16:23:43;1007;;;8.5;81.1
54439;BME280;40347;53.848;27.498;2022-10-04T16:29:17;1007;;;8.6;80.9
54439;BME280;40347;53.848;27.498;2022-10-04T16:38:52;1007.1;;;8.6;80.2
54439;BME280;40347;53.848;27.498;2022-10-04T16:43:47;1007;;;8.6;79.8
54439;BME280;40347;53.848;27.498;2022-10-04T16:48:35;1007.2;;;8.7;79.6
54439;BME280;40347;53.848;27.498;2022-10-04T16:53:48;1007.2;;;8.7;79.4
54439;BME280;40347;53.848;27.498;2022-10-04T16:58:40;1007.3;;;8.6;79.2
54439;BME280;40347;53.848;27.498;2022-10-04T17:03:31;1007.3;;;8.7;79
54439;BME280;40347;53.848;27.498;2022-10-04T17:09:47;1007.4;;;8.7;78.8
54439;BME280;40347;53.848;27.498;2022-10-04T17:14:51;1007.5;;;8.7;78.9
54439;BME280;40347;53.848;27.498;2022-10-04T17:23:38;1007.5;;;8.7;79.1
54439;BME280;40347;53.848;27.498;2022-10-04T17:28:46;1007.6;;;8.8;79
54439;BME280;40347;53.848;27.498;2022-10-04T17:33:36;1007.6;;;8.8;78.8
54439;BME280;40347;53.848;27.498;2022-10-04T17:39:30;1007.6;;;8.9;78.9
54439;BME280;40347;53.848;27.498;2022-10-04T17:43:42;1007.7;;;8.9;78.8
54439;BME280;40347;53.848;27.498;2022-10-04T17:48:50;1007.8;;;9;78.7
54439;BME280;40347;53.848;27.498;2022-10-04T17:53:40;1007.8;;;9.1;78.8
54439;BME280;40347;53.848;27.498;2022-10-04T17:58:55;1007.9;;;9.1;78.8
54439;BME280;40347;53.848;27.498;2022-10-04T18:03:36;1007.9;;;9.2;78.7
54439;BME280;40347;53.848;27.498;2022-10-04T18:09:40;1007.9;;;9.2;78.7
54439;BME280;40347;53.848;27.498;2022-10-04T18:18:51;1008;;;9.4;78.7
54439;BME280;40347;53.848;27.498;2022-10-04T18:23:49;1008;;;9.4;78.6
54439;BME280;40347;53.848;27.498;2022-10-04T18:28:43;1008.1;;;9.5;78.4
54439;BME280;40347;53.848;27.498;2022-10-04T18:33:48;1008.2;;;9.6;78.3
54439;BME280;40347;53.848;27.498;2022-10-04T18:38:39;1008.2;;;9.7;78.1
54439;BME280;40347;53.848;27.498;2022-10-04T18:43:39;1008.3;;;9.7;77.9
54439;BME280;40347;53.848;27.498;2022-10-04T18:48:35;1008.3;;;9.8;77.7
54439;BME280;40347;53.848;27.498;2022-10-04T18:53:49;1008.4;;;9.8;77.5
54439;BME280;40347;53.848;27.498;2022-10-04T19:00:01;1008.4;;;9.7;77.5
54439;BME280;40347;53.848;27.498;2022-10-04T19:03:49;1008.4;;;9.7;77.5
54439;BME280;40347;53.848;27.498;2022-10-04T19:08:42;1008.4;;;9.8;77.6
54439;BME280;40347;53.848;27.498;2022-10-04T19:18:46;1008.5;;;9.7;77.5
54439;BME280;40347;53.848;27.498;2022-10-04T19:28:49;1008.5;;;9.6;77.8
54439;BME280;40347;53.848;27.498;2022-10-04T19:33:44;1008.6;;;9.6;77.9
54439;BME280;40347;53.848;27.498;2022-10-04T19:38:46;1008.6;;;9.7;77.9
54439;BME280;40347;53.848;27.498;2022-10-04T19:48:35;1008.7;;;9.7;77.4
54439;BME280;40347;53.848;27.498;2022-10-04T19:53:41;1008.7;;;9.6;76.7
54439;BME280;40347;53.848;27.498;2022-10-04T19:58:35;1008.8;;;9.6;76.3
54439;BME280;40347;53.848;27.498;2022-10-04T20:03:41;1008.9;;;9.6;76.2
54439;BME280;40347;53.848;27.498;2022-10-04T20:08:50;1009;;;9.7;75.9
54439;BME280;40347;53.848;27.498;2022-10-04T20:13:41;1009.1;;;9.5;75.7
54439;BME280;40347;53.848;27.498;2022-10-04T20:23:49;1009.3;;;9;76.1
54439;BME280;40347;53.848;27.498;2022-10-04T20:28:41;1009.3;;;8.9;76.5
54439;BME280;40347;53.848;27.498;2022-10-04T20:33:49;1009.4;;;8.8;76.7
54439;BME280;40347;53.848;27.498;2022-10-04T20:38:57;1009.5;;;8.7;76.7
54439;BME280;40347;53.848;27.498;2022-10-04T20:44:04;1009.6;;;8.6;77
54439;BME280;40347;53.848;27.498;2022-10-04T20:48:51;1009.7;;;8.4;77.1
54439;BME280;40347;53.848;27.498;2022-10-04T20:53:31;1009.8;;;8.4;77.2
54439;BME280;40347;53.848;27.498;2022-10-04T20:58:41;1009.9;;;8.4;77.3
54439;BME280;40347;53.848;27.498;2022-10-04T21:03:41;1010;;;8.2;77.4
54439;BME280;40347;53.848;27.498;2022-10-04T21:08:31;1010.1;;;8.2;77.4
54439;BME280;40347;53.848;27.498;2022-10-04T21:13:55;1010.1;;;8.1;77.6
54439;BME280;40347;53.848;27.498;2022-10-04T21:18:49;1010.2;;;8.1;77.8
54439;BME280;40347;53.848;27.498;2022-10-04T21:23:41;1010.3;;;8.3;77.8
54439;BME280;40347;53.848;27.498;2022-10-04T21:28:32;1010.3;;;8.4;77.6
54439;BME280;40347;53.848;27.498;2022-10-04T21:33:39;1010.4;;;8.6;77.1
54439;BME280;40347;53.848;27.498;2022-10-04T21:38:49;1010.5;;;8.7;76.6
54439;BME280;40347;53.848;27.498;2022-10-04T21:43:41;1010.6;;;8.8;76.1
54439;BME280;40347;53.848;27.498;2022-10-04T21:48:31;1010.6;;;8.8;75.9
54439;BME280;40347;53.848;27.498;2022-10-04T21:53:41;1010.6;;;8.9;75.9
54439;BME280;40347;53.848;27.498;2022-10-04T21:58:31;1010.7;;;8.9;75.8
54439;BME280;40347;53.848;27.498;2022-10-04T22:03:31;1010.7;;;8.8;76
54439;BME280;40347;53.848;27.498;2022-10-04T22:08:41;1010.8;;;8.8;76.1
54439;BME280;40347;53.848;27.498;2022-10-04T22:13:31;1010.9;;;8.8;76.3
54439;BME280;40347;53.848;27.498;2022-10-04T22:18:31;1010.9;;;8.7;76.5
54439;BME280;40347;53.848;27.498;2022-10-04T22:23:40;1011;;;8.8;76.5
54439;BME280;40347;53.848;27.498;2022-10-04T22:28:44;1011;;;8.8;76.6
54439;BME280;40347;53.848;27.498;2022-10-04T22:33:42;1011;;;8.9;76.4
54439;BME280;40347;53.848;27.498;2022-10-04T22:38:50;1011.1;;;9;76.2
54439;BME280;40347;53.848;27.498;2022-10-04T22:43:31;1011.2;;;9.1;76.1
54439;BME280;40347;53.848;27.498;2022-10-04T22:48:49;1011.3;;;9.1;75.7
54439;BME280;40347;53.848;27.498;2022-10-04T22:53:31;1011.5;;;9;75.7
54439;BME280;40347;53.848;27.498;2022-10-04T22:58:41;1011.6;;;8.9;76
54439;BME280;40347;53.848;27.498;2022-10-04T23:03:39;1011.6;;;8.8;76.2
54439;BME280;40347;53.848;27.498;2022-10-04T23:08:41;1011.8;;;8.6;76.5
54439;BME280;40347;53.848;27.498;2022-10-04T23:13:39;1011.9;;;8.6;76.9
54439;BME280;40347;53.848;27.498;2022-10-04T23:18:49;1012.1;;;8.6;77.2
54439;BME280;40347;53.848;27.498;2022-10-04T23:23:51;1012.2;;;8.7;77.3
54439;BME280;40347;53.848;27.498;2022-10-04T23:28:31;1012.1;;;8.8;77.4
54439;BME280;40347;53.848;27.498;2022-10-04T23:33:39;1012;;;8.7;77.1
54439;BME280;40347;53.848;27.498;2022-10-04T23:38:31;1012.1;;;8.7;77.3
54439;BME280;40347;53.848;27.498;2022-10-04T23:43:39;1012.2;;;8.8;77.3
54439;BME280;40347;53.848;27.498;2022-10-04T23:48:41;1012.3;;;8.8;77.3
54439;BME280;40347;53.848;27.498;2022-10-04T23:53:41;1012.4;;;8.8;77.2
54439;BME280;40347;53.848;27.498;2022-10-04T23:58:41;1012.5;;;8.9;77.1
